createdAt,value
2023-02-19T00:01:46.731Z,10.41
2023-02-19T00:04:14.741Z,10.37
2023-02-19T00:06:42.500Z,10.32
2023-02-19T00:09:11.128Z,10.28
2023-02-19T00:11:38.510Z,10.25
2023-02-19T00:14:08.360Z,10.23
2023-02-19T00:16:38.529Z,10.17
2023-02-19T00:19:09.025Z,10.11
2023-02-19T00:21:39.975Z,10.07
2023-02-19T00:24:08.040Z,10.06
2023-02-19T00:26:34.925Z,10.03
2023-02-19T00:29:04.597Z,9.98
2023-02-19T00:31:35.673Z,9.94
2023-02-19T00:34:07.146Z,9.91
2023-02-19T00:36:37.518Z,9.89
2023-02-19T00:39:05.366Z,9.88
2023-02-19T00:41:32.745Z,9.85
2023-02-19T00:44:00.766Z,9.80
2023-02-19T00:46:34.825Z,9.77
2023-02-19T00:49:04.821Z,9.74
2023-02-19T00:51:34.892Z,9.71
2023-02-19T00:54:01.549Z,9.64
2023-02-19T00:56:28.309Z,9.64
2023-02-19T00:58:58.675Z,9.57
2023-02-19T01:01:27.064Z,9.56
2023-02-19T01:03:53.662Z,9.53
2023-02-19T01:06:21.475Z,9.50
2023-02-19T01:08:48.408Z,9.46
2023-02-19T01:11:17.336Z,9.41
2023-02-19T01:13:44.016Z,9.38
2023-02-19T01:16:22.335Z,9.34
2023-02-19T01:18:49.414Z,9.30
2023-02-19T01:21:22.993Z,9.28
2023-02-19T01:23:52.607Z,9.23
2023-02-19T01:26:21.815Z,9.23
2023-02-19T01:28:48.956Z,9.28
2023-02-19T01:31:23.180Z,9.28
2023-02-19T01:33:57.899Z,9.27
2023-02-19T01:36:29.258Z,9.24
2023-02-19T01:39:05.671Z,9.22
2023-02-19T01:41:38.661Z,9.20
2023-02-19T01:44:05.321Z,9.17
2023-02-19T01:46:33.429Z,9.13
2023-02-19T01:49:08.303Z,9.12
2023-02-19T01:51:44.006Z,9.11
2023-02-19T01:54:13.527Z,9.10
2023-02-19T01:56:44.125Z,9.09
2023-02-19T01:59:10.938Z,9.07
2023-02-19T02:01:41.422Z,9.06
2023-02-19T02:04:11.111Z,9.05
2023-02-19T02:07:25.528Z,9.04
2023-02-19T02:10:11.805Z,9.02
2023-02-19T02:12:38.360Z,8.99
2023-02-19T02:15:05.470Z,8.98
2023-02-19T02:17:48.640Z,8.94
2023-02-19T02:20:36.016Z,8.91
2023-02-19T02:23:14.321Z,8.87
2023-02-19T02:25:41.407Z,8.88
2023-02-19T02:28:36.119Z,8.85
2023-02-19T02:31:14.708Z,8.86
2023-02-19T02:33:47.893Z,8.85
2023-02-19T02:36:35.851Z,8.86
2023-02-19T02:39:05.501Z,8.87
2023-02-19T02:41:41.028Z,8.87
2023-02-19T02:44:07.723Z,8.87
2023-02-19T02:46:36.899Z,8.86
2023-02-19T02:49:06.644Z,8.85
2023-02-19T02:51:45.641Z,8.86
2023-02-19T02:54:35.305Z,8.86
2023-02-19T02:57:04.475Z,8.85
2023-02-19T02:59:34.778Z,8.87
2023-02-19T03:02:14.860Z,8.86
2023-02-19T03:05:38.278Z,8.88
2023-02-19T03:08:11.904Z,8.88
2023-02-19T03:10:59.645Z,8.89
2023-02-19T03:13:55.585Z,8.87
2023-02-19T03:16:47.312Z,8.85
2023-02-19T03:19:21.472Z,8.86
2023-02-19T03:22:10.841Z,8.86
2023-02-19T03:25:08.349Z,8.88
2023-02-19T03:27:37.651Z,8.87
2023-02-19T03:30:11.973Z,8.85
2023-02-19T03:32:55.702Z,8.84
2023-02-19T03:35:32.232Z,8.84
2023-02-19T03:38:18.664Z,8.83
2023-02-19T03:41:01.718Z,8.82
2023-02-19T03:44:00.397Z,8.83
2023-02-19T03:46:44.468Z,8.81
2023-02-19T03:49:18.928Z,8.77
2023-02-19T03:52:03.281Z,8.75
2023-02-19T03:54:46.048Z,8.73
2023-02-19T03:57:45.010Z,8.69
2023-02-19T04:00:17.073Z,8.66
2023-02-19T04:02:56.202Z,8.63
2023-02-19T04:05:37.369Z,8.63
2023-02-19T04:08:13.062Z,8.63
2023-02-19T04:10:42.527Z,8.63
2023-02-19T04:13:18.581Z,8.64
2023-02-19T04:15:49.236Z,8.64
2023-02-19T04:18:20.634Z,8.63
2023-02-19T04:20:50.360Z,8.59
2023-02-19T04:23:22.517Z,8.52
2023-02-19T04:25:59.448Z,8.51
2023-02-19T04:28:27.795Z,8.52
2023-02-19T04:30:54.446Z,8.53
2023-02-19T04:33:20.934Z,8.51
2023-02-19T04:35:47.564Z,8.50
2023-02-19T04:38:14.848Z,8.49
2023-02-19T04:40:41.361Z,8.49
2023-02-19T04:43:09.840Z,8.49
2023-02-19T04:45:39.292Z,8.49
2023-02-19T04:48:06.155Z,8.51
2023-02-19T04:50:39.169Z,8.50
2023-02-19T04:53:06.260Z,8.51
2023-02-19T04:55:32.799Z,8.50
2023-02-19T04:58:00.513Z,8.49
2023-02-19T05:00:27.182Z,8.49
2023-02-19T05:02:53.695Z,8.49
2023-02-19T05:05:22.464Z,8.49
2023-02-19T05:07:49.020Z,8.49
2023-02-19T05:10:15.642Z,8.50
2023-02-19T05:12:52.707Z,8.49
2023-02-19T05:15:22.136Z,8.47
2023-02-19T05:17:48.632Z,8.43
2023-02-19T05:20:15.402Z,8.41
2023-02-19T05:22:42.107Z,8.39
2023-02-19T05:25:08.595Z,8.40
2023-02-19T05:27:35.236Z,8.41
2023-02-19T05:30:01.829Z,8.41
2023-02-19T05:32:28.403Z,8.41
2023-02-19T05:34:55.108Z,8.42
2023-02-19T05:37:21.585Z,8.43
2023-02-19T05:39:49.398Z,8.43
2023-02-19T05:42:17.832Z,8.41
2023-02-19T05:44:44.415Z,8.40
2023-02-19T05:47:11.237Z,8.41
2023-02-19T05:49:39.592Z,8.41
2023-02-19T05:52:06.114Z,8.45
2023-02-19T05:54:32.622Z,8.45
2023-02-19T05:57:01.444Z,8.45
2023-02-19T05:59:28.322Z,8.44
2023-02-19T06:01:55.709Z,8.47
2023-02-19T06:04:22.508Z,8.50
2023-02-19T06:06:49.403Z,8.52
2023-02-19T06:09:18.441Z,8.55
2023-02-19T06:11:45.197Z,8.54
2023-02-19T06:14:14.043Z,8.56
2023-02-19T06:16:40.765Z,8.55
2023-02-19T06:19:09.501Z,8.54
2023-02-19T06:21:36.039Z,8.56
2023-02-19T06:24:07.339Z,8.57
2023-02-19T06:26:34.389Z,8.56
2023-02-19T06:29:00.921Z,8.57
2023-02-19T06:31:30.030Z,8.57
2023-02-19T06:33:58.604Z,8.57
2023-02-19T06:36:25.333Z,8.56
2023-02-19T06:38:51.978Z,8.53
2023-02-19T06:41:20.683Z,8.52
2023-02-19T06:43:47.692Z,8.53
2023-02-19T06:46:14.317Z,8.53
2023-02-19T06:48:42.752Z,8.53
2023-02-19T06:51:14.286Z,8.53
2023-02-19T06:53:41.087Z,8.52
2023-02-19T06:56:23.172Z,8.53
2023-02-19T06:58:49.648Z,8.49
2023-02-19T07:01:16.502Z,8.49
2023-02-19T07:03:43.162Z,8.46
2023-02-19T07:06:09.765Z,8.43
2023-02-19T07:08:36.357Z,8.40
2023-02-19T07:11:02.963Z,8.35
2023-02-19T07:13:29.452Z,8.32
2023-02-19T07:16:02.513Z,8.30
2023-02-19T07:18:30.390Z,8.27
2023-02-19T07:21:10.322Z,8.21
2023-02-19T07:23:38.276Z,8.18
2023-02-19T07:26:05.493Z,8.17
2023-02-19T07:28:32.250Z,8.16
2023-02-19T07:31:02.960Z,8.13
2023-02-19T07:33:29.550Z,8.14
2023-02-19T07:35:56.048Z,8.15
2023-02-19T07:38:27.748Z,8.15
2023-02-19T07:40:56.933Z,8.13
2023-02-19T07:43:24.744Z,8.12
2023-02-19T07:45:53.438Z,8.11
2023-02-19T07:48:20.742Z,8.11
2023-02-19T07:50:58.770Z,8.13
2023-02-19T07:53:27.997Z,8.16
2023-02-19T07:55:54.747Z,8.18
2023-02-19T07:58:23.479Z,8.15
2023-02-19T08:00:49.934Z,8.17
2023-02-19T08:03:16.459Z,8.17
2023-02-19T08:05:45.240Z,8.19
2023-02-19T08:08:14.428Z,8.20
2023-02-19T08:11:00.511Z,8.19
2023-02-19T08:13:30.173Z,8.20
2023-02-19T08:16:07.597Z,8.20
2023-02-19T08:18:42.942Z,8.16
2023-02-19T08:21:10.573Z,8.16
2023-02-19T08:23:37.380Z,8.17
2023-02-19T08:26:04.535Z,8.15
2023-02-19T08:28:31.417Z,8.13
2023-02-19T08:31:03.016Z,8.12
2023-02-19T08:33:36.429Z,8.16
2023-02-19T08:36:08.117Z,8.17
2023-02-19T08:38:36.516Z,8.21
2023-02-19T08:41:08.532Z,8.30
2023-02-19T08:43:35.911Z,8.36
2023-02-19T08:46:16.304Z,8.36
2023-02-19T08:48:42.824Z,8.33
2023-02-19T08:51:11.540Z,8.31
2023-02-19T08:53:39.614Z,8.33
2023-02-19T08:56:11.070Z,8.37
2023-02-19T08:58:40.107Z,8.43
2023-02-19T09:01:17.424Z,8.56
2023-02-19T09:03:44.150Z,8.58
2023-02-19T09:06:18.420Z,8.71
2023-02-19T09:08:45.326Z,8.78
2023-02-19T09:11:12.190Z,8.91
2023-02-19T09:13:38.986Z,8.88
2023-02-19T09:16:06.181Z,8.90
2023-02-19T09:18:32.801Z,9.02
2023-02-19T09:21:05.166Z,9.09
2023-02-19T09:23:36.490Z,9.15
2023-02-19T09:26:06.951Z,9.05
2023-02-19T09:28:33.634Z,9.18
2023-02-19T09:31:13.840Z,9.16
2023-02-19T09:33:51.195Z,9.28
2023-02-19T09:36:18.720Z,9.42
2023-02-19T09:38:45.601Z,9.49
2023-02-19T09:41:32.520Z,9.55
2023-02-19T09:44:00.928Z,9.56
2023-02-19T09:46:49.319Z,9.73
2023-02-19T09:49:21.239Z,9.73
2023-02-19T09:52:01.421Z,9.86
2023-02-19T09:54:30.818Z,9.80
2023-02-19T09:57:02.467Z,9.93
2023-02-19T09:59:39.551Z,9.86
2023-02-19T10:02:17.203Z,9.98
2023-02-19T10:04:45.978Z,10.11
2023-02-19T10:07:21.743Z,10.13
2023-02-19T10:10:13.734Z,10.09
2023-02-19T10:12:47.735Z,10.15
2023-02-19T10:15:27.498Z,10.44
2023-02-19T10:17:54.340Z,10.67
2023-02-19T10:20:24.834Z,10.46
2023-02-19T10:23:05.225Z,10.33
2023-02-19T10:25:33.820Z,10.13
2023-02-19T10:28:01.688Z,10.14
2023-02-19T10:30:33.656Z,10.04
2023-02-19T10:33:15.290Z,9.99
2023-02-19T10:36:05.709Z,10.04
2023-02-19T10:38:39.183Z,9.86
2023-02-19T10:41:13.309Z,9.85
2023-02-19T10:43:44.058Z,9.83
2023-02-19T10:46:26.161Z,9.87
2023-02-19T10:48:59.490Z,9.95
2023-02-19T10:51:38.640Z,9.94
2023-02-19T10:54:24.949Z,10.01
2023-02-19T10:56:51.362Z,10.12
2023-02-19T10:59:18.024Z,10.19
2023-02-19T11:01:59.008Z,10.19
2023-02-19T11:04:27.509Z,10.23
2023-02-19T11:06:54.332Z,10.27
2023-02-19T11:09:32.753Z,10.33
2023-02-19T11:11:59.583Z,10.33
2023-02-19T11:14:29.668Z,10.26
2023-02-19T11:17:00.286Z,10.28
2023-02-19T11:19:36.791Z,10.33
2023-02-19T11:22:38.665Z,10.37
2023-02-19T11:25:17.749Z,10.34
2023-02-19T11:28:07.493Z,10.35
2023-02-19T11:30:40.413Z,10.41
2023-02-19T11:33:24.118Z,10.29
2023-02-19T11:36:27.669Z,10.23
2023-02-19T11:39:03.693Z,10.20
2023-02-19T11:41:49.084Z,10.15
2023-02-19T11:44:30.432Z,10.09
2023-02-19T11:47:18.504Z,10.02
2023-02-19T11:49:46.862Z,10.06
2023-02-19T11:52:16.062Z,9.97
2023-02-19T11:54:54.805Z,9.93
2023-02-19T11:57:36.315Z,9.83
2023-02-19T12:00:17.593Z,9.79
2023-02-19T12:03:21.304Z,9.77
2023-02-19T12:05:57.110Z,9.74
2023-02-19T12:08:31.981Z,9.66
2023-02-19T12:11:12.514Z,9.59
2023-02-19T12:14:15.216Z,9.56
2023-02-19T12:16:54.929Z,9.60
2023-02-19T12:19:55.618Z,9.66
2023-02-19T12:22:40.551Z,9.84
2023-02-19T12:25:29.121Z,9.85
2023-02-19T12:28:00.529Z,9.98
2023-02-19T12:30:41.967Z,10.12
2023-02-19T12:33:22.024Z,10.22
2023-02-19T12:36:00.719Z,10.21
2023-02-19T12:38:58.181Z,10.20
2023-02-19T12:41:53.321Z,10.30
2023-02-19T12:44:30.451Z,10.26
2023-02-19T12:47:01.587Z,10.18
2023-02-19T12:49:30.952Z,10.12
2023-02-19T12:52:04.588Z,10.13
2023-02-19T12:54:38.404Z,9.99
2023-02-19T12:57:12.488Z,9.90
2023-02-19T13:00:07.931Z,9.84
2023-02-19T13:02:50.444Z,9.84
2023-02-19T13:05:38.402Z,9.73
2023-02-19T13:08:14.338Z,9.70
2023-02-19T13:10:50.400Z,9.64
2023-02-19T13:13:28.829Z,9.56
2023-02-19T13:16:06.335Z,9.62
2023-02-19T13:18:43.593Z,9.67
2023-02-19T13:21:12.082Z,9.78
2023-02-19T13:24:03.261Z,9.85
2023-02-19T13:26:49.173Z,9.97
2023-02-19T13:29:37.140Z,10.04
2023-02-19T13:32:25.222Z,10.04
2023-02-19T13:35:11.691Z,10.02
2023-02-19T13:37:38.655Z,9.96
2023-02-19T13:40:27.201Z,9.94
2023-02-19T13:43:05.508Z,9.87
2023-02-19T13:45:36.589Z,9.91
2023-02-19T13:48:14.234Z,9.84
2023-02-19T13:50:43.258Z,9.83
2023-02-19T13:53:48.273Z,9.87
2023-02-19T13:56:29.899Z,9.94
2023-02-19T13:59:01.518Z,9.92
2023-02-19T14:01:52.738Z,9.97
2023-02-19T14:04:39.401Z,10.01
2023-02-19T14:07:10.056Z,9.94
2023-02-19T14:09:40.037Z,9.97
2023-02-19T14:12:16.430Z,9.97
2023-02-19T14:15:24.786Z,10.05
2023-02-19T14:17:53.109Z,10.19
2023-02-19T14:20:41.672Z,10.19
2023-02-19T14:23:25.491Z,10.25
2023-02-19T14:25:56.676Z,10.30
2023-02-19T14:28:31.706Z,10.35
2023-02-19T14:31:21.024Z,10.33
2023-02-19T14:33:53.776Z,10.39
2023-02-19T14:36:48.749Z,10.37
2023-02-19T14:39:42.152Z,10.38
2023-02-19T14:42:17.703Z,10.36
2023-02-19T14:44:50.367Z,10.37
2023-02-19T14:47:20.347Z,10.45
2023-02-19T14:49:52.835Z,10.46
2023-02-19T14:52:26.569Z,10.42
2023-02-19T14:55:02.297Z,10.37
2023-02-19T14:57:32.851Z,10.41
2023-02-19T15:00:01.721Z,10.32
2023-02-19T15:02:30.986Z,10.22
2023-02-19T15:04:58.080Z,10.21
2023-02-19T15:07:33.489Z,10.19
2023-02-19T15:10:05.039Z,10.09
2023-02-19T15:12:45.157Z,10.11
2023-02-19T15:15:25.542Z,10.09
2023-02-19T15:17:54.474Z,10.02
2023-02-19T15:20:25.663Z,9.97
2023-02-19T15:22:54.850Z,9.96
2023-02-19T15:25:23.870Z,9.91
2023-02-19T15:27:50.644Z,9.95
2023-02-19T15:30:23.625Z,9.93
2023-02-19T15:32:59.099Z,9.90
2023-02-19T15:35:27.502Z,9.92
2023-02-19T15:37:57.848Z,9.93
2023-02-19T15:40:32.635Z,9.89
2023-02-19T15:43:00.710Z,9.89
2023-02-19T15:45:40.482Z,9.88
2023-02-19T15:48:32.092Z,9.89
2023-02-19T15:51:09.403Z,9.86
2023-02-19T15:53:46.680Z,9.82
2023-02-19T15:56:32.164Z,9.81
2023-02-19T15:59:22.739Z,9.78
2023-02-19T16:01:49.496Z,9.72
2023-02-19T16:04:18.599Z,9.67
2023-02-19T16:06:54.484Z,9.63
2023-02-19T16:09:28.216Z,9.58
2023-02-19T16:11:58.480Z,9.53
2023-02-19T16:14:25.227Z,9.49
2023-02-19T16:16:55.624Z,9.45
2023-02-19T16:19:31.397Z,9.43
2023-02-19T16:21:58.492Z,9.38
2023-02-19T16:24:28.500Z,9.37
2023-02-19T16:26:57.151Z,9.34
2023-02-19T16:29:31.527Z,9.31
2023-02-19T16:32:03.594Z,9.27
2023-02-19T16:34:41.664Z,9.22
2023-02-19T16:37:40.795Z,9.19
2023-02-19T16:40:07.452Z,9.18
2023-02-19T16:42:58.286Z,9.16
2023-02-19T16:45:27.376Z,9.12
2023-02-19T16:47:54.246Z,9.10
2023-02-19T16:50:25.100Z,9.06
2023-02-19T16:53:02.093Z,9.05
2023-02-19T16:55:30.172Z,9.02
2023-02-19T16:57:56.739Z,9.00
2023-02-19T17:00:33.709Z,8.99
2023-02-19T17:03:09.035Z,8.97
2023-02-19T17:05:41.309Z,8.97
2023-02-19T17:08:33.808Z,8.95
2023-02-19T17:11:11.381Z,8.93
2023-02-19T17:13:38.280Z,8.92
2023-02-19T17:16:05.328Z,8.91
2023-02-19T17:18:38.161Z,8.89
2023-02-19T17:21:16.148Z,8.88
2023-02-19T17:23:49.281Z,8.85
2023-02-19T17:26:18.101Z,8.86
2023-02-19T17:28:44.588Z,8.84
2023-02-19T17:31:12.079Z,8.84
2023-02-19T17:33:38.947Z,8.83
2023-02-19T17:36:07.892Z,8.81
2023-02-19T17:38:38.932Z,8.81
2023-02-19T17:41:05.451Z,8.80
2023-02-19T17:43:31.913Z,8.78
2023-02-19T17:45:58.537Z,8.77
2023-02-19T17:48:25.212Z,8.76
2023-02-19T17:50:52.300Z,8.76
2023-02-19T17:55:45.834Z,8.73
2023-02-19T17:58:12.627Z,8.72
2023-02-19T18:00:41.418Z,8.70
2023-02-19T18:03:08.064Z,8.69
2023-02-19T18:05:34.880Z,8.67
2023-02-19T18:08:03.179Z,8.68
2023-02-19T18:10:30.536Z,8.67
2023-02-19T18:12:57.192Z,8.66
2023-02-19T18:15:31.343Z,8.64
2023-02-19T18:17:58.390Z,8.63
2023-02-19T18:20:27.406Z,8.61
2023-02-19T18:22:56.576Z,8.60
2023-02-19T18:25:25.495Z,8.60
2023-02-19T18:27:52.660Z,8.57
2023-02-19T18:30:22.990Z,8.59
2023-02-19T18:32:50.271Z,8.56
2023-02-19T18:35:23.855Z,8.57
2023-02-19T18:37:53.254Z,8.55
2023-02-19T18:40:25.988Z,8.54
2023-02-19T18:42:52.992Z,8.53
2023-02-19T18:45:19.607Z,8.52
2023-02-19T18:47:50.123Z,8.51
2023-02-19T18:50:19.417Z,8.49
2023-02-19T18:52:45.961Z,8.48
2023-02-19T18:55:12.488Z,8.47
2023-02-19T18:57:39.035Z,8.49
2023-02-19T19:00:06.963Z,8.49
2023-02-19T19:02:48.728Z,8.47
2023-02-19T19:05:23.452Z,8.45
2023-02-19T19:07:57.063Z,8.41
2023-02-19T19:10:26.340Z,8.40
2023-02-19T19:12:54.202Z,8.39
2023-02-19T19:15:25.988Z,8.37
2023-02-19T19:17:52.865Z,8.34
2023-02-19T19:20:23.312Z,8.33
2023-02-19T19:22:52.903Z,8.29
2023-02-19T19:25:23.260Z,8.29
2023-02-19T19:27:51.691Z,8.25
2023-02-19T19:30:20.455Z,8.22
2023-02-19T19:32:51.882Z,8.20
2023-02-19T19:35:19.552Z,8.17
2023-02-19T19:37:48.141Z,8.15
2023-02-19T19:40:17.176Z,8.12
2023-02-19T19:42:46.096Z,8.08
2023-02-19T19:45:14.191Z,8.03
2023-02-19T19:47:40.698Z,7.98
2023-02-19T19:50:07.450Z,7.94
2023-02-19T19:52:35.709Z,7.89
2023-02-19T19:55:02.329Z,7.85
2023-02-19T19:57:28.802Z,7.82
2023-02-19T19:59:57.464Z,7.77
2023-02-19T20:02:24.140Z,7.72
2023-02-19T20:04:51.104Z,7.68
2023-02-19T20:07:17.650Z,7.63
2023-02-19T20:09:51.434Z,7.60
2023-02-19T20:12:18.035Z,7.56
2023-02-19T20:14:46.178Z,7.57
2023-02-19T20:17:13.157Z,7.56
2023-02-19T20:19:39.700Z,7.56
2023-02-19T20:22:06.203Z,7.58
2023-02-19T20:24:32.732Z,7.59
2023-02-19T20:27:02.585Z,7.58
2023-02-19T20:29:35.436Z,7.57
2023-02-19T20:32:03.978Z,7.56
2023-02-19T20:34:31.080Z,7.54
2023-02-19T20:36:57.953Z,7.54
2023-02-19T20:39:28.812Z,7.54
2023-02-19T20:41:56.286Z,7.54
2023-02-19T20:44:27.154Z,7.56
2023-02-19T20:46:54.097Z,7.57
2023-02-19T20:49:23.123Z,7.58
2023-02-19T20:51:52.118Z,7.58
2023-02-19T20:54:20.584Z,7.60
2023-02-19T20:56:49.307Z,7.60
2023-02-19T20:59:17.391Z,7.60
2023-02-19T21:01:44.324Z,7.60
2023-02-19T21:04:11.244Z,7.59
2023-02-19T21:06:42.487Z,7.60
2023-02-19T21:11:40.434Z,7.63
2023-02-19T21:14:06.958Z,7.63
2023-02-19T21:16:33.663Z,7.64
2023-02-19T21:19:00.280Z,7.65
2023-02-19T21:21:29.369Z,7.66
2023-02-19T21:23:57.858Z,7.66
2023-02-19T21:26:25.451Z,7.67
2023-02-19T21:29:03.788Z,7.67
2023-02-19T21:31:47.816Z,7.66
2023-02-19T21:34:21.154Z,7.66
2023-02-19T21:36:49.340Z,7.67
2023-02-19T21:39:19.028Z,7.69
2023-02-19T21:41:45.750Z,7.70
2023-02-19T21:44:12.499Z,7.69
2023-02-19T21:46:39.132Z,7.70
2023-02-19T21:49:11.213Z,7.70
2023-02-19T21:51:40.237Z,7.71
2023-02-19T21:54:08.279Z,7.70
2023-02-19T21:56:36.649Z,7.71
2023-02-19T21:59:05.268Z,7.71
2023-02-19T22:01:34.092Z,7.71
2023-02-19T22:04:01.457Z,7.69
2023-02-19T22:06:30.756Z,7.69
2023-02-19T22:08:58.281Z,7.65
2023-02-19T22:11:31.255Z,7.62
2023-02-19T22:13:58.146Z,7.58
2023-02-19T22:16:25.016Z,7.57
2023-02-19T22:18:57.305Z,7.56
2023-02-19T22:21:26.090Z,7.53
2023-02-19T22:23:53.659Z,7.53
2023-02-19T22:26:34.481Z,7.52
2023-02-19T22:29:05.921Z,7.52
2023-02-19T22:31:33.405Z,7.50
2023-02-19T22:34:04.690Z,7.49
2023-02-19T22:36:33.352Z,7.49
2023-02-19T22:39:01.025Z,7.47
2023-02-19T22:41:29.457Z,7.47
2023-02-19T22:43:57.337Z,7.46
2023-02-19T22:46:25.718Z,7.47
2023-02-19T22:48:54.684Z,7.46
2023-02-19T22:51:23.164Z,7.44
2023-02-19T22:54:00.422Z,7.44
2023-02-19T22:56:28.585Z,7.41
2023-02-19T22:58:56.912Z,7.38
2023-02-19T23:01:25.778Z,7.35
2023-02-19T23:03:54.937Z,7.33
2023-02-19T23:06:33.296Z,7.32
2023-02-19T23:09:04.198Z,7.29
2023-02-19T23:11:34.057Z,7.29
2023-02-19T23:14:02.696Z,7.27
2023-02-19T23:16:29.290Z,7.22
2023-02-19T23:18:55.886Z,7.18
2023-02-19T23:21:25.479Z,7.13
2023-02-19T23:23:51.946Z,7.08
2023-02-19T23:26:19.479Z,7.03
2023-02-19T23:28:46.989Z,7.00
2023-02-19T23:31:16.221Z,6.97
2023-02-19T23:33:43.503Z,6.94
2023-02-19T23:36:11.541Z,6.94
2023-02-19T23:38:38.241Z,6.93
2023-02-19T23:41:10.799Z,6.95
2023-02-19T23:43:39.381Z,6.97
2023-02-19T23:46:06.242Z,6.97
2023-02-19T23:48:32.884Z,6.97
2023-02-19T23:51:01.461Z,6.97
2023-02-19T23:53:28.171Z,6.94
2023-02-19T23:55:54.899Z,6.95
2023-02-19T23:58:21.513Z,6.92
